createdAt,value
2024-04-14T00:00:23.218Z,59.31
2024-04-14T00:01:18.672Z,59.11
2024-04-14T00:02:03.333Z,59.22
2024-04-14T00:02:58.884Z,59.62
2024-04-14T00:03:54.499Z,59.11
2024-04-14T00:04:50.062Z,59.22
2024-04-14T00:05:45.511Z,59.82
2024-04-14T00:06:41.111Z,59.52
2024-04-14T00:07:36.721Z,59.24
2024-04-14T00:08:32.147Z,59.55
2024-04-14T00:09:27.692Z,59.52
2024-04-14T00:10:23.222Z,59.31
2024-04-14T00:11:18.808Z,59.14
2024-04-14T00:12:14.306Z,59.34
2024-04-14T00:13:09.843Z,59.64
2024-04-14T00:14:05.379Z,59.62
2024-04-14T00:15:00.981Z,59.14
2024-04-14T00:15:56.545Z,59.44
2024-04-14T00:16:52.032Z,59.44
2024-04-14T00:17:47.615Z,59.14
2024-04-14T00:18:43.282Z,59.14
2024-04-14T00:19:38.677Z,60.05
2024-04-14T00:20:34.176Z,59.64
2024-04-14T00:21:29.741Z,59.64
2024-04-14T00:22:25.248Z,59.84
2024-04-14T00:23:20.787Z,59.55
2024-04-14T00:24:16.309Z,59.55
2024-04-14T00:25:11.844Z,59.14
2024-04-14T00:26:07.398Z,59.01
2024-04-14T00:27:02.946Z,59.55
2024-04-14T00:27:58.535Z,59.55
2024-04-14T00:28:54.013Z,59.34
2024-04-14T00:29:49.546Z,59.75
2024-04-14T00:30:45.145Z,59.44
2024-04-14T00:31:40.618Z,59.97
2024-04-14T00:32:36.272Z,59.77
2024-04-14T00:33:31.841Z,59.55
2024-04-14T00:34:27.271Z,59.44
2024-04-14T00:35:22.791Z,59.64
2024-04-14T00:36:18.324Z,59.24
2024-04-14T00:37:13.868Z,59.44
2024-04-14T00:38:09.444Z,59.64
2024-04-14T00:39:05.040Z,59.34
2024-04-14T00:40:00.589Z,59.34
2024-04-14T00:40:56.061Z,59.34
2024-04-14T00:41:51.599Z,59.44
2024-04-14T00:42:36.346Z,59.84
2024-04-14T00:43:31.820Z,59.55
2024-04-14T00:44:27.340Z,59.55
2024-04-14T00:45:22.922Z,59.34
2024-04-14T00:46:18.404Z,59.37
2024-04-14T00:47:13.985Z,59.55
2024-04-14T00:48:09.613Z,59.75
2024-04-14T00:49:05.170Z,59.64
2024-04-14T00:50:00.578Z,59.84
2024-04-14T00:50:56.143Z,59.55
2024-04-14T00:51:51.783Z,59.34
2024-04-14T00:52:47.225Z,59.34
2024-04-14T00:53:42.758Z,59.17
2024-04-14T00:54:38.351Z,59.17
2024-04-14T00:55:33.825Z,59.77
2024-04-14T00:56:29.357Z,59.95
2024-04-14T00:57:24.947Z,59.27
2024-04-14T00:58:20.471Z,59.34
2024-04-14T00:59:15.992Z,59.77
2024-04-14T01:00:11.535Z,59.55
2024-04-14T01:01:07.123Z,59.34
2024-04-14T01:02:04.750Z,59.27
2024-04-14T01:02:58.257Z,59.88
2024-04-14T01:03:53.769Z,60.05
2024-04-14T01:04:49.430Z,59.24
2024-04-14T01:05:44.798Z,59.55
2024-04-14T01:06:40.359Z,59.55
2024-04-14T01:07:35.854Z,59.47
2024-04-14T01:08:31.382Z,59.77
2024-04-14T01:09:26.958Z,59.34
2024-04-14T01:10:22.484Z,59.88
2024-04-14T01:11:18.045Z,59.14
2024-04-14T01:12:13.529Z,59.95
2024-04-14T01:13:09.070Z,59.88
2024-04-14T01:14:04.599Z,59.57
2024-04-14T01:15:00.189Z,59.77
2024-04-14T01:15:55.775Z,59.57
2024-04-14T01:16:40.371Z,59.57
2024-04-14T01:17:35.987Z,59.95
2024-04-14T01:18:31.511Z,60.08
2024-04-14T01:19:26.992Z,60.17
2024-04-14T01:20:22.542Z,60.28
2024-04-14T01:21:18.087Z,59.97
2024-04-14T01:22:13.623Z,60.17
2024-04-14T01:23:09.143Z,59.77
2024-04-14T01:24:04.692Z,60.28
2024-04-14T01:24:49.364Z,59.77
2024-04-14T01:25:44.939Z,59.95
2024-04-14T01:26:40.458Z,59.88
2024-04-14T01:27:36.011Z,60.15
2024-04-14T01:28:31.512Z,60.17
2024-04-14T01:29:27.637Z,60.08
2024-04-14T01:30:23.200Z,60.17
2024-04-14T01:31:18.717Z,59.97
2024-04-14T01:32:14.286Z,60.05
2024-04-14T01:33:09.802Z,59.77
2024-04-14T01:34:05.323Z,60.08
2024-04-14T01:35:00.870Z,59.77
2024-04-14T01:35:56.390Z,59.97
2024-04-14T01:36:52.050Z,59.77
2024-04-14T01:37:47.526Z,60.48
2024-04-14T01:38:43.055Z,59.88
2024-04-14T01:39:38.758Z,60.17
2024-04-14T01:40:34.111Z,60.17
2024-04-14T01:41:29.661Z,60.17
2024-04-14T01:42:25.220Z,59.77
2024-04-14T01:43:20.726Z,59.84
2024-04-14T01:44:16.268Z,60.08
2024-04-14T01:45:11.806Z,59.77
2024-04-14T01:46:07.337Z,60.58
2024-04-14T01:47:02.877Z,59.88
2024-04-14T01:47:58.509Z,60.48
2024-04-14T01:48:54.013Z,60.17
2024-04-14T01:49:49.526Z,60.17
2024-04-14T01:50:45.053Z,60.68
2024-04-14T01:51:40.614Z,60.48
2024-04-14T01:52:36.133Z,60.38
2024-04-14T01:53:31.682Z,60.38
2024-04-14T01:54:27.240Z,60.58
2024-04-14T01:55:22.741Z,60.58
2024-04-14T01:56:18.307Z,59.97
2024-04-14T01:57:13.844Z,60.28
2024-04-14T01:58:09.379Z,60.78
2024-04-14T01:59:04.905Z,60.75
2024-04-14T02:00:00.483Z,60.58
2024-04-14T02:00:56.188Z,60.58
2024-04-14T02:01:51.634Z,60.38
2024-04-14T02:02:47.202Z,60.08
2024-04-14T02:03:42.862Z,60.17
2024-04-14T02:04:38.225Z,60.38
2024-04-14T02:05:33.751Z,60.48
2024-04-14T02:06:29.300Z,60.68
2024-04-14T02:07:24.829Z,60.28
2024-04-14T02:08:20.368Z,60.58
2024-04-14T02:09:15.010Z,60.45
2024-04-14T02:10:10.555Z,60.98
2024-04-14T02:11:06.090Z,60.58
2024-04-14T02:12:01.657Z,60.58
2024-04-14T02:12:57.387Z,60.88
2024-04-14T02:13:52.744Z,60.68
2024-04-14T02:14:48.284Z,60.58
2024-04-14T02:15:43.927Z,60.88
2024-04-14T02:16:39.360Z,61.18
2024-04-14T02:17:34.927Z,61.29
2024-04-14T02:18:30.464Z,61.49
2024-04-14T02:19:25.946Z,61.49
2024-04-14T02:20:21.474Z,61.49
2024-04-14T02:21:17.007Z,61.39
2024-04-14T02:22:12.538Z,61.49
2024-04-14T02:23:07.216Z,61.49
2024-04-14T02:24:02.769Z,61.69
2024-04-14T02:24:58.363Z,61.49
2024-04-14T02:25:53.832Z,61.39
2024-04-14T02:26:49.401Z,61.49
2024-04-14T02:27:44.986Z,61.79
2024-04-14T02:28:40.495Z,60.98
2024-04-14T02:29:36.033Z,61.79
2024-04-14T02:30:31.595Z,61.49
2024-04-14T02:31:27.091Z,61.29
2024-04-14T02:32:22.713Z,61.89
2024-04-14T02:33:07.327Z,61.39
2024-04-14T02:34:02.943Z,61.18
2024-04-14T02:34:58.435Z,61.79
2024-04-14T02:35:53.956Z,61.79
2024-04-14T02:36:49.495Z,61.99
2024-04-14T02:37:45.025Z,61.49
2024-04-14T02:38:40.594Z,61.59
2024-04-14T02:39:36.173Z,61.99
2024-04-14T02:40:31.676Z,61.79
2024-04-14T02:41:27.219Z,61.39
2024-04-14T02:42:22.789Z,61.49
2024-04-14T02:43:18.287Z,61.86
2024-04-14T02:44:13.845Z,61.79
2024-04-14T02:45:09.361Z,61.79
2024-04-14T02:46:05.001Z,61.79
2024-04-14T02:47:00.449Z,61.39
2024-04-14T02:47:56.027Z,61.59
2024-04-14T02:48:51.606Z,61.59
2024-04-14T02:49:47.072Z,61.36
2024-04-14T02:50:42.610Z,61.79
2024-04-14T02:51:38.206Z,61.86
2024-04-14T02:52:33.684Z,61.39
2024-04-14T02:53:29.227Z,61.96
2024-04-14T02:54:24.962Z,61.69
2024-04-14T02:55:20.266Z,61.46
2024-04-14T02:56:04.924Z,61.66
2024-04-14T02:57:00.498Z,61.56
2024-04-14T02:57:55.998Z,61.96
2024-04-14T02:58:51.529Z,61.76
2024-04-14T02:59:47.082Z,61.56
2024-04-14T03:00:42.698Z,61.25
2024-04-14T03:01:38.241Z,61.36
2024-04-14T03:02:33.718Z,61.76
2024-04-14T03:03:29.230Z,61.96
2024-04-14T03:04:26.027Z,61.36
2024-04-14T03:05:20.276Z,61.16
2024-04-14T03:06:15.852Z,61.76
2024-04-14T03:07:11.391Z,61.66
2024-04-14T03:08:06.919Z,61.66
2024-04-14T03:09:02.449Z,61.86
2024-04-14T03:09:58.085Z,61.86
2024-04-14T03:10:53.553Z,61.96
2024-04-14T03:11:49.101Z,62.06
2024-04-14T03:12:44.659Z,62.06
2024-04-14T03:13:40.163Z,62.06
2024-04-14T03:14:36.291Z,62.16
2024-04-14T03:15:31.861Z,61.96
2024-04-14T03:16:27.355Z,61.86
2024-04-14T03:17:22.901Z,61.96
2024-04-14T03:18:18.422Z,62.37
2024-04-14T03:19:13.964Z,62.06
2024-04-14T03:20:09.499Z,61.96
2024-04-14T03:21:05.050Z,62.37
2024-04-14T03:22:01.264Z,61.66
2024-04-14T03:22:56.751Z,61.66
2024-04-14T03:23:52.285Z,61.86
2024-04-14T03:24:47.869Z,61.86
2024-04-14T03:25:43.357Z,62.06
2024-04-14T03:26:38.910Z,61.83
2024-04-14T03:27:34.472Z,61.86
2024-04-14T03:28:30.006Z,62.16
2024-04-14T03:29:25.532Z,62.46
2024-04-14T03:30:21.077Z,62.44
2024-04-14T03:31:16.731Z,62.26
2024-04-14T03:32:12.140Z,62.77
2024-04-14T03:33:07.714Z,62.06
2024-04-14T03:34:03.271Z,62.74
2024-04-14T03:34:58.801Z,62.37
2024-04-14T03:35:43.459Z,62.26
2024-04-14T03:36:39.049Z,62.13
2024-04-14T03:37:38.818Z,62.13
2024-04-14T03:38:30.056Z,62.34
2024-04-14T03:39:25.674Z,62.26
2024-04-14T03:40:21.145Z,62.57
2024-04-14T03:41:16.682Z,63.27
2024-04-14T03:42:12.229Z,62.26
2024-04-14T03:43:07.748Z,62.46
2024-04-14T03:44:03.294Z,62.37
2024-04-14T03:44:58.832Z,63.57
2024-04-14T03:45:54.566Z,62.16
2024-04-14T03:46:39.063Z,63.27
2024-04-14T03:47:34.642Z,62.87
2024-04-14T03:48:30.173Z,62.87
2024-04-14T03:49:25.686Z,63.27
2024-04-14T03:50:21.197Z,63.07
2024-04-14T03:51:16.751Z,63.27
2024-04-14T03:52:12.300Z,62.87
2024-04-14T03:53:07.839Z,62.97
2024-04-14T03:54:03.367Z,63.17
2024-04-14T03:54:59.038Z,62.77
2024-04-14T03:55:54.435Z,62.97
2024-04-14T03:56:50.026Z,63.37
2024-04-14T03:57:45.588Z,63.78
2024-04-14T03:58:41.146Z,63.57
2024-04-14T03:59:36.702Z,63.87
2024-04-14T04:00:32.280Z,63.24
2024-04-14T04:01:27.876Z,63.78
2024-04-14T04:02:23.383Z,63.57
2024-04-14T04:03:18.813Z,62.97
2024-04-14T04:04:14.424Z,63.87
2024-04-14T04:05:09.877Z,63.87
2024-04-14T04:06:05.426Z,63.45
2024-04-14T04:07:00.975Z,63.04
2024-04-14T04:07:56.523Z,63.87
2024-04-14T04:08:52.047Z,63.37
2024-04-14T04:09:36.793Z,62.66
2024-04-14T04:10:32.276Z,63.65
2024-04-14T04:11:27.855Z,63.47
2024-04-14T04:12:23.395Z,63.27
2024-04-14T04:13:18.918Z,63.57
2024-04-14T04:14:14.449Z,62.97
2024-04-14T04:15:09.986Z,63.67
2024-04-14T04:16:05.753Z,64.48
2024-04-14T04:17:01.076Z,63.57
2024-04-14T04:17:56.682Z,64.28
2024-04-14T04:18:52.287Z,63.87
2024-04-14T04:19:47.772Z,63.98
2024-04-14T04:20:43.256Z,63.47
2024-04-14T04:21:38.823Z,63.87
2024-04-14T04:22:34.385Z,63.67
2024-04-14T04:23:29.906Z,63.87
2024-04-14T04:24:25.840Z,63.78
2024-04-14T04:25:20.966Z,63.67
2024-04-14T04:26:16.496Z,64.48
2024-04-14T04:27:12.044Z,63.67
2024-04-14T04:28:07.582Z,63.98
2024-04-14T04:29:03.108Z,63.37
2024-04-14T04:29:58.672Z,63.47
2024-04-14T04:30:54.278Z,63.67
2024-04-14T04:31:49.769Z,63.37
2024-04-14T04:32:45.353Z,63.67
2024-04-14T04:33:41.327Z,63.98
2024-04-14T04:34:36.371Z,64.48
2024-04-14T04:35:31.927Z,63.47
2024-04-14T04:36:27.490Z,63.67
2024-04-14T04:37:23.001Z,63.27
2024-04-14T04:38:18.542Z,63.57
2024-04-14T04:39:14.074Z,62.97
2024-04-14T04:40:09.643Z,63.37
2024-04-14T04:41:05.196Z,63.57
2024-04-14T04:42:00.748Z,63.37
2024-04-14T04:42:56.338Z,63.67
2024-04-14T04:43:51.817Z,64.28
2024-04-14T04:44:47.353Z,63.78
2024-04-14T04:45:43.019Z,63.57
2024-04-14T04:46:38.476Z,63.17
2024-04-14T04:47:34.078Z,63.78
2024-04-14T04:48:29.788Z,63.87
2024-04-14T04:49:25.164Z,63.57
2024-04-14T04:50:20.638Z,63.47
2024-04-14T04:51:16.181Z,63.78
2024-04-14T04:52:11.757Z,63.07
2024-04-14T04:53:07.322Z,62.87
2024-04-14T04:54:02.875Z,63.07
2024-04-14T04:54:58.501Z,63.67
2024-04-14T04:55:53.961Z,63.47
2024-04-14T04:56:49.483Z,62.77
2024-04-14T04:57:45.057Z,63.67
2024-04-14T04:58:40.592Z,63.17
2024-04-14T04:59:36.137Z,62.87
2024-04-14T05:00:31.836Z,63.67
2024-04-14T05:01:27.384Z,63.67
2024-04-14T05:02:22.800Z,63.47
2024-04-14T05:03:18.443Z,63.78
2024-04-14T05:04:13.944Z,63.67
2024-04-14T05:05:09.436Z,64.28
2024-04-14T05:06:04.968Z,63.57
2024-04-14T05:07:00.569Z,63.98
2024-04-14T05:07:56.012Z,63.67
2024-04-14T05:08:51.577Z,63.17
2024-04-14T05:09:47.138Z,63.17
2024-04-14T05:10:42.670Z,63.57
2024-04-14T05:11:38.173Z,62.97
2024-04-14T05:12:33.766Z,62.57
2024-04-14T05:13:29.264Z,62.16
2024-04-14T05:14:24.847Z,62.26
2024-04-14T05:15:20.412Z,62.57
2024-04-14T05:16:15.937Z,63.07
2024-04-14T05:17:11.505Z,62.77
2024-04-14T05:18:07.085Z,62.66
2024-04-14T05:19:02.690Z,62.26
2024-04-14T05:19:58.111Z,62.37
2024-04-14T05:20:53.660Z,62.16
2024-04-14T05:21:49.240Z,62.46
2024-04-14T05:22:44.714Z,62.16
2024-04-14T05:23:40.272Z,62.77
2024-04-14T05:24:35.871Z,62.46
2024-04-14T05:25:31.380Z,62.57
2024-04-14T05:26:26.909Z,62.37
2024-04-14T05:27:22.444Z,62.37
2024-04-14T05:28:17.989Z,62.37
2024-04-14T05:29:13.523Z,62.16
2024-04-14T05:30:09.063Z,62.16
2024-04-14T05:31:04.790Z,62.06
2024-04-14T05:32:00.203Z,62.57
2024-04-14T05:32:55.741Z,62.57
2024-04-14T05:33:51.299Z,61.99
2024-04-14T05:34:46.782Z,62.26
2024-04-14T05:35:42.307Z,61.86
2024-04-14T05:36:37.946Z,61.86
2024-04-14T05:37:33.431Z,61.96
2024-04-14T05:38:28.984Z,61.46
2024-04-14T05:39:24.577Z,61.05
2024-04-14T05:40:20.050Z,61.36
2024-04-14T05:41:15.588Z,61.05
2024-04-14T05:42:11.175Z,61.16
2024-04-14T05:43:06.732Z,60.65
2024-04-14T05:43:51.174Z,59.75
2024-04-14T05:44:46.718Z,59.95
2024-04-14T05:45:42.307Z,59.55
2024-04-14T05:46:37.785Z,59.55
2024-04-14T05:47:33.386Z,59.64
2024-04-14T05:48:28.974Z,59.34
2024-04-14T05:49:24.607Z,59.64
2024-04-14T05:50:20.072Z,59.64
2024-04-14T05:51:15.480Z,59.84
2024-04-14T05:52:11.068Z,59.55
2024-04-14T05:53:06.591Z,59.57
2024-04-14T05:54:02.130Z,59.67
2024-04-14T05:54:57.832Z,60.28
2024-04-14T05:55:53.320Z,60.28
2024-04-14T05:56:48.854Z,59.95
2024-04-14T05:57:44.405Z,59.57
2024-04-14T05:58:39.971Z,59.67
2024-04-14T05:59:35.511Z,59.77
2024-04-14T06:00:31.183Z,59.67
2024-04-14T06:01:26.680Z,59.37
2024-04-14T06:02:22.154Z,59.57
2024-04-14T06:03:17.763Z,59.37
2024-04-14T06:04:13.327Z,59.09
2024-04-14T06:05:08.795Z,59.37
2024-04-14T06:06:04.300Z,59.37
2024-04-14T06:06:59.881Z,59.09
2024-04-14T06:07:55.390Z,59.27
2024-04-14T06:08:50.897Z,59.77
2024-04-14T06:09:46.500Z,59.67
2024-04-14T06:10:42.039Z,59.27
2024-04-14T06:11:37.567Z,58.67
2024-04-14T06:12:22.212Z,58.87
2024-04-14T06:13:17.740Z,58.84
2024-04-14T06:14:13.274Z,58.14
2024-04-14T06:15:08.843Z,58.23
2024-04-14T06:15:53.546Z,58.51
2024-04-14T06:16:49.133Z,58.21
2024-04-14T06:17:44.587Z,58.71
2024-04-14T06:18:40.180Z,58.11
2024-04-14T06:19:35.636Z,57.81
2024-04-14T06:20:31.225Z,57.81
2024-04-14T06:21:26.805Z,57.81
2024-04-14T06:22:22.298Z,57.90
2024-04-14T06:23:21.135Z,58.23
2024-04-14T06:24:13.384Z,58.01
2024-04-14T06:25:09.071Z,58.91
2024-04-14T06:26:04.485Z,58.51
2024-04-14T06:27:00.032Z,57.63
2024-04-14T06:27:55.597Z,57.81
2024-04-14T06:28:51.088Z,57.60
2024-04-14T06:29:46.621Z,57.50
2024-04-14T06:30:42.196Z,58.31
2024-04-14T06:31:37.737Z,57.90
2024-04-14T06:32:33.375Z,58.41
2024-04-14T06:33:28.880Z,58.14
2024-04-14T06:34:24.335Z,57.73
2024-04-14T06:35:19.850Z,57.83
2024-04-14T06:36:15.381Z,57.73
2024-04-14T06:37:10.940Z,58.11
2024-04-14T06:38:06.466Z,57.50
2024-04-14T06:39:02.013Z,57.40
2024-04-14T06:39:57.540Z,57.70
2024-04-14T06:40:53.106Z,57.57
2024-04-14T06:41:48.639Z,57.48
2024-04-14T06:42:44.209Z,57.98
2024-04-14T06:43:39.713Z,57.37
2024-04-14T06:44:24.379Z,56.47
2024-04-14T06:45:19.918Z,56.77
2024-04-14T06:46:15.456Z,57.37
2024-04-14T06:47:11.039Z,57.37
2024-04-14T06:48:06.578Z,57.28
2024-04-14T06:49:02.133Z,57.75
2024-04-14T06:49:57.630Z,57.37
2024-04-14T06:50:53.175Z,57.24
2024-04-14T06:51:49.253Z,56.87
2024-04-14T06:52:44.805Z,57.57
2024-04-14T06:53:40.353Z,56.77
2024-04-14T06:54:35.924Z,57.07
2024-04-14T06:55:34.699Z,56.47
2024-04-14T06:56:26.983Z,56.37
2024-04-14T06:57:22.515Z,56.07
2024-04-14T06:58:18.086Z,56.77
2024-04-14T06:59:13.624Z,56.37
2024-04-14T07:00:09.182Z,56.87
2024-04-14T07:01:04.935Z,56.57
2024-04-14T07:02:00.322Z,56.74
2024-04-14T07:02:55.784Z,56.74
2024-04-14T07:03:51.423Z,56.27
2024-04-14T07:04:47.019Z,57.07
2024-04-14T07:05:42.462Z,56.40
2024-04-14T07:06:37.977Z,56.90
2024-04-14T07:07:36.716Z,56.49
2024-04-14T07:08:29.032Z,57.40
2024-04-14T07:09:24.607Z,57.50
2024-04-14T07:10:20.158Z,57.40
2024-04-14T07:11:15.739Z,57.40
2024-04-14T07:12:11.236Z,57.30
2024-04-14T07:13:06.844Z,57.50
2024-04-14T07:14:02.311Z,57.60
2024-04-14T07:14:57.845Z,56.70
2024-04-14T07:15:42.546Z,57.30
2024-04-14T07:16:38.639Z,57.00
2024-04-14T07:17:34.244Z,57.00
2024-04-14T07:18:29.800Z,57.12
2024-04-14T07:19:25.246Z,56.70
2024-04-14T07:20:20.789Z,55.76
2024-04-14T07:21:16.336Z,55.69
2024-04-14T07:22:11.869Z,55.08
2024-04-14T07:23:07.452Z,55.19
2024-04-14T07:24:02.992Z,55.29
2024-04-14T07:24:58.635Z,55.36
2024-04-14T07:25:54.089Z,54.96
2024-04-14T07:26:49.596Z,54.53
2024-04-14T07:27:45.158Z,53.83
2024-04-14T07:28:40.676Z,54.23
2024-04-14T07:29:36.202Z,53.92
2024-04-14T07:30:31.758Z,54.05
2024-04-14T07:31:27.266Z,53.95
2024-04-14T07:32:22.820Z,54.15
2024-04-14T07:33:18.494Z,54.63
2024-04-14T07:34:13.985Z,54.55
2024-04-14T07:35:09.456Z,54.03
2024-04-14T07:36:04.979Z,53.63
2024-04-14T07:37:00.631Z,54.20
2024-04-14T07:37:56.069Z,54.10
2024-04-14T07:38:51.599Z,53.88
2024-04-14T07:39:47.239Z,52.74
2024-04-14T07:40:42.716Z,52.94
2024-04-14T07:41:38.258Z,52.84
2024-04-14T07:42:33.870Z,52.74
2024-04-14T07:43:29.370Z,52.87
2024-04-14T07:44:24.990Z,53.37
2024-04-14T07:45:20.516Z,52.87
2024-04-14T07:46:16.051Z,53.00
2024-04-14T07:47:11.630Z,52.67
2024-04-14T07:48:07.270Z,53.40
2024-04-14T07:49:02.720Z,53.09
2024-04-14T07:49:58.207Z,52.49
2024-04-14T07:50:53.789Z,52.69
2024-04-14T07:51:49.352Z,51.59
2024-04-14T07:52:44.885Z,52.29
2024-04-14T07:53:40.418Z,52.06
2024-04-14T07:54:38.814Z,51.36
2024-04-14T07:55:31.491Z,50.76
2024-04-14T07:56:27.043Z,50.96
2024-04-14T07:57:22.585Z,50.46
2024-04-14T07:58:18.100Z,50.26
2024-04-14T07:59:13.635Z,49.63
2024-04-14T08:00:09.172Z,48.43
2024-04-14T08:01:04.775Z,49.93
2024-04-14T08:02:00.299Z,49.71
2024-04-14T08:02:55.856Z,49.80
2024-04-14T08:03:56.763Z,49.13
2024-04-14T08:04:46.960Z,49.22
2024-04-14T08:05:42.467Z,48.60
2024-04-14T08:06:38.012Z,49.71
2024-04-14T08:07:33.532Z,47.82
2024-04-14T08:08:30.111Z,47.80
2024-04-14T08:09:25.653Z,48.10
2024-04-14T08:10:21.210Z,46.77
2024-04-14T08:11:16.750Z,47.55
2024-04-14T08:12:13.320Z,47.15
2024-04-14T08:13:07.894Z,46.37
2024-04-14T08:14:03.389Z,47.17
2024-04-14T08:14:58.944Z,46.25
2024-04-14T08:15:43.660Z,45.50
2024-04-14T08:16:39.162Z,44.08
2024-04-14T08:17:34.688Z,43.98
2024-04-14T08:18:30.247Z,43.90
2024-04-14T08:19:25.760Z,44.62
2024-04-14T08:20:21.291Z,44.14
2024-04-14T08:21:17.007Z,45.17
2024-04-14T08:22:12.461Z,45.49
2024-04-14T08:23:07.906Z,46.29
2024-04-14T08:24:03.458Z,46.49
2024-04-14T08:24:59.019Z,46.17
2024-04-14T08:25:54.523Z,45.57
2024-04-14T08:26:50.062Z,45.97
2024-04-14T08:27:45.662Z,45.50
2024-04-14T08:28:41.136Z,45.00
2024-04-14T08:29:36.712Z,44.30
2024-04-14T08:30:32.277Z,44.20
2024-04-14T08:31:27.793Z,44.42
2024-04-14T08:32:23.383Z,45.02
2024-04-14T08:33:08.052Z,45.83
2024-04-14T08:34:07.366Z,46.53
2024-04-14T08:34:59.146Z,46.53
2024-04-14T08:35:54.664Z,46.03
2024-04-14T08:36:50.253Z,46.23
2024-04-14T08:37:45.743Z,46.12
2024-04-14T08:38:41.266Z,45.42
2024-04-14T08:39:36.861Z,46.15
2024-04-14T08:40:32.362Z,45.75
2024-04-14T08:41:27.899Z,45.25
2024-04-14T08:42:23.452Z,45.17
2024-04-14T08:43:18.982Z,45.97
2024-04-14T08:44:14.535Z,45.37
2024-04-14T08:45:10.105Z,45.57
2024-04-14T08:46:05.788Z,45.26
2024-04-14T08:47:01.240Z,44.67
2024-04-14T08:47:56.740Z,44.59
2024-04-14T08:48:52.347Z,44.89
2024-04-14T08:49:47.804Z,44.79
2024-04-14T08:50:43.342Z,44.67
2024-04-14T08:51:38.923Z,44.06
2024-04-14T08:52:33.477Z,44.67
2024-04-14T08:53:27.003Z,43.68
2024-04-14T08:54:20.536Z,43.16
2024-04-14T08:55:14.065Z,43.18
2024-04-14T08:56:07.633Z,43.76
2024-04-14T08:57:01.173Z,43.34
2024-04-14T08:57:54.772Z,42.33
2024-04-14T08:58:48.249Z,42.74
2024-04-14T08:59:41.797Z,42.76
2024-04-14T09:00:35.487Z,42.24
2024-04-14T09:01:19.339Z,42.13
2024-04-14T09:02:12.739Z,41.74
2024-04-14T09:03:06.253Z,42.02
2024-04-14T09:03:59.864Z,41.19
2024-04-14T09:04:53.256Z,41.25
2024-04-14T09:05:46.770Z,39.81
2024-04-14T09:06:40.318Z,38.36
2024-04-14T09:07:33.836Z,37.40
2024-04-14T09:08:27.356Z,35.66
2024-04-14T09:09:20.879Z,35.26
2024-04-14T09:10:14.422Z,35.68
2024-04-14T09:11:07.990Z,35.74
2024-04-14T09:12:01.552Z,35.03
2024-04-14T09:12:55.156Z,34.00
2024-04-14T09:13:48.593Z,34.05
2024-04-14T09:14:42.125Z,33.45
2024-04-14T09:15:35.737Z,33.27
2024-04-14T09:16:29.404Z,33.88
2024-04-14T09:17:22.784Z,33.59
2024-04-14T09:18:16.327Z,34.40
2024-04-14T09:19:09.877Z,35.03
2024-04-14T09:20:03.428Z,35.52
2024-04-14T09:20:56.938Z,35.24
2024-04-14T09:21:50.556Z,35.56
2024-04-14T09:22:44.051Z,36.46
2024-04-14T09:23:37.584Z,36.59
2024-04-14T09:24:31.159Z,37.30
2024-04-14T09:25:24.676Z,37.23
2024-04-14T09:26:18.221Z,37.54
2024-04-14T09:27:11.763Z,37.08
2024-04-14T09:28:05.364Z,38.59
2024-04-14T09:28:58.844Z,38.31
2024-04-14T09:29:52.372Z,38.93
2024-04-14T09:30:45.974Z,39.03
2024-04-14T09:31:39.463Z,39.15
2024-04-14T09:32:33.073Z,39.25
2024-04-14T09:33:16.800Z,39.73
2024-04-14T09:34:10.309Z,39.81
2024-04-14T09:35:14.019Z,39.41
2024-04-14T09:36:07.578Z,39.91
2024-04-14T09:37:01.163Z,39.03
2024-04-14T09:37:56.078Z,39.45
2024-04-14T09:38:48.166Z,39.65
2024-04-14T09:39:41.711Z,39.95
2024-04-14T09:40:25.354Z,39.77
2024-04-14T09:41:18.913Z,39.67
2024-04-14T09:42:12.521Z,39.45
2024-04-14T09:43:06.075Z,38.85
2024-04-14T09:43:59.580Z,38.43
2024-04-14T09:44:53.101Z,39.31
2024-04-14T09:45:46.646Z,38.40
2024-04-14T09:46:40.175Z,36.91
2024-04-14T09:47:33.841Z,37.13
2024-04-14T09:48:27.255Z,36.94
2024-04-14T09:49:20.776Z,37.33
2024-04-14T09:50:04.455Z,37.33
2024-04-14T09:50:57.996Z,36.55
2024-04-14T09:51:51.560Z,36.35
2024-04-14T09:52:45.086Z,36.35
2024-04-14T09:53:38.640Z,36.44
2024-04-14T09:54:32.210Z,36.15
2024-04-14T09:55:25.712Z,35.64
2024-04-14T09:56:09.397Z,36.23
2024-04-14T09:57:02.922Z,36.43
2024-04-14T09:57:56.485Z,35.94
2024-04-14T09:58:49.987Z,35.85
2024-04-14T09:59:43.557Z,36.26
2024-04-14T10:00:37.189Z,37.37
2024-04-14T10:01:30.813Z,36.26
2024-04-14T10:02:24.213Z,36.55
2024-04-14T10:03:07.883Z,36.35
2024-04-14T10:04:01.442Z,35.96
2024-04-14T10:04:54.928Z,36.66
2024-04-14T10:05:48.450Z,36.16
2024-04-14T10:06:42.058Z,35.68
2024-04-14T10:07:35.621Z,36.18
2024-04-14T10:08:29.135Z,35.68
2024-04-14T10:09:22.665Z,36.08
2024-04-14T10:10:16.237Z,36.38
2024-04-14T10:11:09.840Z,36.68
2024-04-14T10:12:03.306Z,36.50
2024-04-14T10:12:56.845Z,35.80
2024-04-14T10:13:50.352Z,36.08
2024-04-14T10:14:43.878Z,35.58
2024-04-14T10:15:37.483Z,36.58
2024-04-14T10:16:30.990Z,36.18
2024-04-14T10:17:24.569Z,36.00
2024-04-14T10:18:18.069Z,36.02
2024-04-14T10:19:11.643Z,36.70
2024-04-14T10:20:05.189Z,37.00
2024-04-14T10:20:58.638Z,37.00
2024-04-14T10:21:52.203Z,37.20
2024-04-14T10:22:45.698Z,37.90
2024-04-14T10:23:39.218Z,38.42
2024-04-14T10:24:32.771Z,38.10
2024-04-14T10:25:26.256Z,38.22
2024-04-14T10:26:19.778Z,38.12
2024-04-14T10:27:13.347Z,38.42
2024-04-14T10:28:06.895Z,38.04
2024-04-14T10:29:00.394Z,38.42
2024-04-14T10:29:53.909Z,38.34
2024-04-14T10:30:47.478Z,38.74
2024-04-14T10:31:40.973Z,37.46
2024-04-14T10:32:34.552Z,37.55
2024-04-14T10:33:28.109Z,38.86
2024-04-14T10:34:21.858Z,39.16
2024-04-14T10:35:15.074Z,38.14
2024-04-14T10:36:08.705Z,38.14
2024-04-14T10:37:02.148Z,38.74
2024-04-14T10:37:55.693Z,38.16
2024-04-14T10:38:49.218Z,37.65
2024-04-14T10:39:42.813Z,38.48
2024-04-14T10:40:36.279Z,38.56
2024-04-14T10:41:29.823Z,39.06
2024-04-14T10:42:23.346Z,38.58
2024-04-14T10:43:16.880Z,37.77
2024-04-14T10:44:10.395Z,38.58
2024-04-14T10:45:03.927Z,39.56
2024-04-14T10:45:57.476Z,38.56
2024-04-14T10:46:51.082Z,38.36
2024-04-14T10:47:44.512Z,38.66
2024-04-14T10:48:38.093Z,38.56
2024-04-14T10:49:31.584Z,38.86
2024-04-14T10:50:25.117Z,38.84
2024-04-14T10:51:18.631Z,38.44
2024-04-14T10:52:12.177Z,39.34
2024-04-14T10:53:05.712Z,38.16
2024-04-14T10:53:59.292Z,37.55
2024-04-14T10:54:52.821Z,38.06
2024-04-14T10:55:46.308Z,38.44
2024-04-14T10:56:39.870Z,38.44
2024-04-14T10:57:33.376Z,38.54
2024-04-14T10:58:26.904Z,37.46
2024-04-14T10:59:20.442Z,37.63
2024-04-14T11:00:13.978Z,38.56
2024-04-14T11:01:07.605Z,37.24
2024-04-14T11:02:01.051Z,36.85
2024-04-14T11:02:54.689Z,36.45
2024-04-14T11:03:48.164Z,36.85
2024-04-14T11:04:41.797Z,36.93
2024-04-14T11:05:35.190Z,37.32
2024-04-14T11:06:28.705Z,36.60
2024-04-14T11:07:22.252Z,37.40
2024-04-14T11:08:15.778Z,37.60
2024-04-14T11:09:09.299Z,37.50
2024-04-14T11:09:52.996Z,37.22
2024-04-14T11:10:46.589Z,37.72
2024-04-14T11:11:40.059Z,37.52
2024-04-14T11:12:33.622Z,37.32
2024-04-14T11:13:27.090Z,36.82
2024-04-14T11:14:20.618Z,36.83
2024-04-14T11:15:14.180Z,37.44
2024-04-14T11:16:07.805Z,36.72
2024-04-14T11:17:01.267Z,36.92
2024-04-14T11:17:54.786Z,35.82
2024-04-14T11:18:48.309Z,36.02
2024-04-14T11:19:41.814Z,35.73
2024-04-14T11:20:35.463Z,35.71
2024-04-14T11:21:28.877Z,35.91
2024-04-14T11:22:22.426Z,36.11
2024-04-14T11:23:15.904Z,36.32
2024-04-14T11:24:09.435Z,36.72
2024-04-14T11:25:03.784Z,36.11
2024-04-14T11:26:07.413Z,35.82
2024-04-14T11:27:00.958Z,35.69
2024-04-14T11:27:54.565Z,35.89
2024-04-14T11:28:48.027Z,36.30
2024-04-14T11:29:41.563Z,35.19
2024-04-14T11:30:35.109Z,34.39
2024-04-14T11:31:28.624Z,33.39
2024-04-14T11:32:12.283Z,32.29
2024-04-14T11:32:56.054Z,31.60
2024-04-14T11:33:39.647Z,31.70
2024-04-14T11:34:33.130Z,32.50
2024-04-14T11:35:26.665Z,31.90
2024-04-14T11:36:20.177Z,32.20
2024-04-14T11:37:13.743Z,32.90
2024-04-14T11:38:07.276Z,32.52
2024-04-14T11:38:50.934Z,32.62
2024-04-14T11:39:44.558Z,32.52
2024-04-14T11:40:39.005Z,32.70
2024-04-14T11:41:32.544Z,31.70
2024-04-14T11:42:26.124Z,31.70
2024-04-14T11:43:19.665Z,33.69
2024-04-14T11:44:13.188Z,32.99